createdAt,value
2023-02-11T00:01:38.055Z,76.51
2023-02-11T00:04:07.546Z,77.23
2023-02-11T00:06:36.709Z,76.88
2023-02-11T00:09:05.929Z,76.90
2023-02-11T00:11:34.945Z,76.52
2023-02-11T00:14:08.085Z,77.03
2023-02-11T00:16:36.721Z,76.53
2023-02-11T00:19:06.684Z,76.47
2023-02-11T00:21:35.207Z,76.07
2023-02-11T00:24:03.981Z,75.44
2023-02-11T00:26:35.473Z,75.46
2023-02-11T00:29:05.834Z,75.78
2023-02-11T00:31:34.479Z,75.81
2023-02-11T00:34:03.102Z,76.11
2023-02-11T00:36:31.902Z,77.44
2023-02-11T00:39:01.112Z,77.33
2023-02-11T00:41:29.945Z,77.18
2023-02-11T00:44:02.640Z,77.31
2023-02-11T00:46:31.147Z,76.37
2023-02-11T00:48:59.648Z,75.98
2023-02-11T00:51:29.307Z,76.57
2023-02-11T00:53:57.986Z,76.43
2023-02-11T00:56:27.340Z,76.53
2023-02-11T00:58:58.012Z,76.70
2023-02-11T01:01:27.003Z,77.21
2023-02-11T01:03:55.562Z,77.70
2023-02-11T01:06:25.025Z,76.89
2023-02-11T01:08:53.687Z,76.48
2023-02-11T01:11:22.900Z,76.06
2023-02-11T01:13:51.678Z,76.37
2023-02-11T01:16:21.694Z,76.16
2023-02-11T01:18:50.224Z,76.84
2023-02-11T01:21:19.724Z,77.29
2023-02-11T01:23:48.261Z,77.51
2023-02-11T01:26:17.123Z,77.74
2023-02-11T01:28:45.664Z,77.41
2023-02-11T01:31:15.292Z,77.65
2023-02-11T01:33:43.781Z,76.75
2023-02-11T01:36:13.111Z,76.40
2023-02-11T01:38:41.956Z,77.02
2023-02-11T01:41:14.776Z,76.00
2023-02-11T01:43:47.775Z,76.97
2023-02-11T01:46:37.851Z,76.39
2023-02-11T01:49:15.052Z,76.54
2023-02-11T01:51:59.201Z,76.78
2023-02-11T01:54:54.066Z,76.69
2023-02-11T01:57:29.033Z,76.71
2023-02-11T02:00:10.053Z,76.86
2023-02-11T02:03:05.547Z,76.31
2023-02-11T02:05:56.181Z,76.37
2023-02-11T02:08:41.213Z,77.27
2023-02-11T02:11:10.017Z,77.34
2023-02-11T02:13:39.150Z,76.45
2023-02-11T02:16:13.284Z,76.26
2023-02-11T02:19:06.506Z,76.11
2023-02-11T02:22:10.609Z,75.79
2023-02-11T02:25:01.277Z,75.83
2023-02-11T02:27:42.852Z,76.27
2023-02-11T02:30:40.318Z,76.58
2023-02-11T02:33:47.087Z,77.20
2023-02-11T02:36:59.267Z,76.93
2023-02-11T02:39:34.966Z,76.69
2023-02-11T02:42:05.475Z,77.03
2023-02-11T02:44:34.296Z,76.82
2023-02-11T02:47:02.959Z,76.71
2023-02-11T02:49:31.588Z,77.04
2023-02-11T02:52:32.130Z,77.12
2023-02-11T02:55:12.780Z,77.00
2023-02-11T02:58:23.361Z,76.97
2023-02-11T03:01:19.984Z,76.93
2023-02-11T03:04:29.733Z,77.69
2023-02-11T03:07:16.661Z,76.83
2023-02-11T03:10:17.328Z,77.65
2023-02-11T03:12:47.397Z,77.60
2023-02-11T03:15:20.118Z,76.11
2023-02-11T03:17:52.645Z,75.48
2023-02-11T03:20:23.250Z,74.83
2023-02-11T03:23:03.516Z,74.90
2023-02-11T03:25:42.315Z,75.17
2023-02-11T03:28:55.313Z,74.98
2023-02-11T03:31:37.758Z,75.57
2023-02-11T03:34:31.334Z,76.46
2023-02-11T03:37:33.075Z,75.33
2023-02-11T03:40:25.640Z,75.74
2023-02-11T03:43:31.564Z,75.86
2023-02-11T03:46:01.498Z,75.35
2023-02-11T03:48:42.315Z,75.37
2023-02-11T03:51:14.307Z,75.00
2023-02-11T03:53:46.795Z,75.04
2023-02-11T03:56:23.889Z,74.74
2023-02-11T03:58:52.326Z,74.83
2023-02-11T04:01:21.018Z,74.64
2023-02-11T04:03:49.601Z,74.40
2023-02-11T04:06:18.159Z,74.73
2023-02-11T04:08:46.616Z,74.42
2023-02-11T04:11:14.985Z,74.44
2023-02-11T04:13:43.432Z,73.80
2023-02-11T04:16:11.870Z,73.71
2023-02-11T04:18:40.340Z,74.94
2023-02-11T04:21:09.682Z,76.59
2023-02-11T04:23:38.243Z,74.82
2023-02-11T04:26:07.154Z,74.68
2023-02-11T04:28:36.502Z,75.20
2023-02-11T04:31:05.576Z,76.13
2023-02-11T04:33:34.181Z,75.54
2023-02-11T04:36:02.701Z,75.15
2023-02-11T04:38:31.105Z,75.70
2023-02-11T04:41:00.769Z,75.24
2023-02-11T04:43:29.252Z,75.48
2023-02-11T04:45:59.006Z,75.55
2023-02-11T04:48:27.619Z,76.11
2023-02-11T04:50:56.185Z,75.32
2023-02-11T04:53:24.660Z,75.11
2023-02-11T04:55:53.448Z,74.54
2023-02-11T04:58:21.901Z,73.53
2023-02-11T05:00:50.372Z,73.98
2023-02-11T05:03:18.972Z,72.93
2023-02-11T05:05:48.021Z,72.96
2023-02-11T05:08:16.522Z,73.08
2023-02-11T05:10:47.763Z,74.78
2023-02-11T05:13:16.352Z,75.49
2023-02-11T05:15:44.825Z,75.13
2023-02-11T05:18:15.149Z,74.44
2023-02-11T05:20:44.101Z,74.68
2023-02-11T05:23:12.753Z,74.62
2023-02-11T05:25:41.212Z,74.67
2023-02-11T05:28:09.816Z,74.62
2023-02-11T05:30:38.270Z,73.45
2023-02-11T05:33:06.921Z,73.76
2023-02-11T05:35:35.390Z,73.59
2023-02-11T05:38:03.837Z,75.03
2023-02-11T05:40:32.398Z,74.48
2023-02-11T05:43:00.908Z,73.94
2023-02-11T05:45:29.385Z,72.93
2023-02-11T05:47:58.410Z,73.25
2023-02-11T05:50:26.849Z,74.14
2023-02-11T05:52:55.268Z,73.58
2023-02-11T05:55:23.890Z,73.84
2023-02-11T05:57:52.325Z,75.14
2023-02-11T06:00:20.953Z,74.67
2023-02-11T06:02:49.550Z,74.34
2023-02-11T06:05:18.265Z,73.36
2023-02-11T06:07:46.718Z,73.20
2023-02-11T06:10:15.390Z,71.94
2023-02-11T06:12:45.093Z,71.09
2023-02-11T06:15:13.580Z,70.61
2023-02-11T06:17:42.039Z,65.83
2023-02-11T06:20:11.472Z,64.66
2023-02-11T06:22:39.938Z,64.36
2023-02-11T06:25:08.737Z,64.85
2023-02-11T06:27:38.318Z,65.66
2023-02-11T06:30:08.285Z,65.77
2023-02-11T06:32:44.434Z,66.44
2023-02-11T06:35:14.938Z,68.12
2023-02-11T06:37:43.485Z,68.02
2023-02-11T06:40:12.369Z,67.57
2023-02-11T06:42:40.923Z,67.69
2023-02-11T06:45:11.268Z,67.05
2023-02-11T06:47:40.747Z,67.44
2023-02-11T06:50:13.383Z,66.84
2023-02-11T06:52:41.949Z,66.56
2023-02-11T06:55:10.474Z,64.46
2023-02-11T06:57:38.918Z,62.66
2023-02-11T07:00:08.358Z,61.78
2023-02-11T07:02:36.942Z,60.38
2023-02-11T07:05:07.851Z,60.35
2023-02-11T07:07:37.225Z,60.06
2023-02-11T07:10:06.717Z,59.28
2023-02-11T07:12:35.227Z,59.42
2023-02-11T07:15:04.309Z,59.47
2023-02-11T07:17:35.210Z,59.59
2023-02-11T07:20:04.200Z,59.45
2023-02-11T07:22:34.451Z,59.15
2023-02-11T07:25:02.916Z,58.60
2023-02-11T07:27:31.375Z,57.32
2023-02-11T07:29:59.818Z,57.71
2023-02-11T07:32:28.225Z,57.93
2023-02-11T07:34:56.730Z,57.57
2023-02-11T07:37:25.344Z,56.67
2023-02-11T07:39:53.789Z,57.19
2023-02-11T07:42:22.214Z,56.69
2023-02-11T07:44:50.805Z,57.10
2023-02-11T07:47:19.219Z,55.55
2023-02-11T07:49:47.817Z,56.49
2023-02-11T07:52:16.240Z,56.46
2023-02-11T07:54:44.661Z,55.63
2023-02-11T07:57:13.076Z,55.88
2023-02-11T07:59:41.468Z,55.63
2023-02-11T08:02:10.487Z,55.69
2023-02-11T08:04:39.190Z,55.18
2023-02-11T08:07:07.681Z,54.38
2023-02-11T08:09:36.064Z,53.75
2023-02-11T08:12:04.935Z,53.77
2023-02-11T08:14:33.355Z,53.35
2023-02-11T08:17:01.833Z,52.14
2023-02-11T08:19:30.545Z,50.88
2023-02-11T08:22:00.828Z,50.17
2023-02-11T08:24:29.208Z,51.04
2023-02-11T08:38:14.587Z,47.89
2023-02-11T08:40:41.920Z,48.63
2023-02-11T08:43:08.914Z,48.45
2023-02-11T08:45:37.149Z,47.20
2023-02-11T08:48:04.253Z,48.18
2023-02-11T08:50:31.739Z,48.14
2023-02-11T08:52:58.969Z,45.50
2023-02-11T08:55:26.074Z,45.70
2023-02-11T08:57:53.110Z,44.94
2023-02-11T09:00:22.269Z,44.60
2023-02-11T09:02:49.298Z,44.33
2023-02-11T09:05:16.501Z,42.80
2023-02-11T09:07:43.620Z,43.69
2023-02-11T09:10:10.738Z,45.34
2023-02-11T09:12:37.759Z,43.75
2023-02-11T09:15:05.212Z,42.85
2023-02-11T09:17:32.272Z,44.50
2023-02-11T09:19:59.511Z,44.50
2023-02-11T09:22:26.660Z,44.01
2023-02-11T09:24:53.860Z,44.75
2023-02-11T09:27:20.962Z,43.00
2023-02-11T09:29:47.997Z,41.83
2023-02-11T09:32:15.241Z,41.73
2023-02-11T09:34:42.398Z,43.15
2023-02-11T09:37:09.463Z,41.25
2023-02-11T09:39:36.469Z,40.79
2023-02-11T09:42:25.383Z,39.93
2023-02-11T09:44:52.715Z,40.23
2023-02-11T09:47:32.901Z,41.05
2023-02-11T09:50:11.882Z,42.29
2023-02-11T09:53:01.918Z,41.99
2023-02-11T09:55:42.149Z,42.80
2023-02-11T09:58:14.647Z,42.75
2023-02-11T10:01:25.345Z,41.44
2023-02-11T10:04:05.957Z,40.50
2023-02-11T10:06:35.738Z,40.81
2023-02-11T10:09:27.643Z,41.77
2023-02-11T10:12:23.598Z,40.46
2023-02-11T10:15:25.141Z,38.53
2023-02-11T10:18:31.553Z,38.70
2023-02-11T10:21:16.541Z,39.24
2023-02-11T10:23:51.242Z,39.26
2023-02-11T10:26:19.422Z,39.85
2023-02-11T10:28:52.365Z,40.42
2023-02-11T10:31:29.767Z,40.01
2023-02-11T10:34:06.539Z,40.94
2023-02-11T10:36:37.416Z,39.82
2023-02-11T10:39:17.174Z,39.87
2023-02-11T10:42:12.076Z,40.73
2023-02-11T10:44:42.015Z,40.97
2023-02-11T10:47:18.122Z,39.67
2023-02-11T10:49:46.912Z,39.24
2023-02-11T10:52:26.618Z,38.91
2023-02-11T10:55:05.997Z,40.35
2023-02-11T10:57:53.905Z,39.97
2023-02-11T11:00:42.129Z,38.11
2023-02-11T11:03:22.957Z,37.64
2023-02-11T11:05:59.852Z,37.51
2023-02-11T11:08:45.345Z,38.90
2023-02-11T11:11:19.216Z,38.97
2023-02-11T11:13:52.090Z,36.71
2023-02-11T11:16:34.836Z,36.53
2023-02-11T11:19:08.054Z,36.78
2023-02-11T11:21:45.417Z,36.46
2023-02-11T11:24:34.611Z,36.91
2023-02-11T11:27:04.731Z,36.39
2023-02-11T11:29:55.089Z,36.10
2023-02-11T11:32:31.947Z,35.96
2023-02-11T11:35:03.305Z,35.51
2023-02-11T11:37:34.438Z,36.31
2023-02-11T11:40:16.756Z,37.22
2023-02-11T11:42:44.028Z,34.42
2023-02-11T11:45:19.206Z,34.61
2023-02-11T11:47:55.709Z,34.46
2023-02-11T11:50:50.888Z,34.85
2023-02-11T11:53:40.911Z,33.66
2023-02-11T11:56:28.132Z,35.80
2023-02-11T11:58:56.211Z,34.79
2023-02-11T12:02:01.548Z,33.67
2023-02-11T12:04:46.808Z,34.40
2023-02-11T12:07:58.663Z,36.71
2023-02-11T12:10:51.001Z,35.41
2023-02-11T12:13:59.908Z,36.38
2023-02-11T12:17:21.030Z,36.89
2023-02-11T12:20:12.344Z,37.58
2023-02-11T12:23:15.955Z,36.47
2023-02-11T12:25:56.824Z,35.88
2023-02-11T12:29:08.564Z,35.83
2023-02-11T12:32:03.407Z,36.41
2023-02-11T12:34:34.903Z,36.70
2023-02-11T12:37:15.791Z,37.99
2023-02-11T12:39:57.739Z,38.02
2023-02-11T12:42:50.140Z,37.82
2023-02-11T12:46:01.965Z,38.13
2023-02-11T12:49:03.236Z,38.57
2023-02-11T12:52:22.244Z,39.23
2023-02-11T12:55:23.842Z,38.96
2023-02-11T12:57:53.907Z,39.61
2023-02-11T13:00:45.185Z,40.13
2023-02-11T13:03:23.079Z,41.69
2023-02-11T13:06:00.211Z,40.37
2023-02-11T13:09:04.012Z,38.15
2023-02-11T13:11:51.393Z,37.72
2023-02-11T13:14:32.175Z,38.12
2023-02-11T13:16:59.313Z,36.52
2023-02-11T13:19:36.289Z,37.43
2023-02-11T13:22:11.823Z,36.76
2023-02-11T13:25:26.393Z,37.49
2023-02-11T13:28:36.980Z,38.12
2023-02-11T13:31:07.294Z,38.61
2023-02-11T13:33:38.944Z,38.13
2023-02-11T13:36:05.916Z,37.97
2023-02-11T13:38:33.783Z,37.15
2023-02-11T13:41:34.578Z,38.22
2023-02-11T13:44:09.069Z,37.92
2023-02-11T13:47:05.062Z,36.31
2023-02-11T13:49:48.710Z,36.41
2023-02-11T13:52:33.733Z,37.28
2023-02-11T13:55:13.122Z,36.09
2023-02-11T13:57:41.738Z,36.90
2023-02-11T14:00:33.413Z,37.16
2023-02-11T14:03:31.129Z,37.33
2023-02-11T14:06:25.967Z,38.70
2023-02-11T14:09:08.463Z,38.78
2023-02-11T14:11:44.450Z,39.08
2023-02-11T14:14:24.983Z,39.30
2023-02-11T14:16:58.233Z,39.07
2023-02-11T14:30:49.430Z,39.96
2023-02-11T14:33:28.071Z,40.51
2023-02-11T14:36:31.793Z,41.48
2023-02-11T14:39:48.124Z,41.71
2023-02-11T14:42:22.596Z,41.37
2023-02-11T14:44:55.197Z,42.16
2023-02-11T14:47:43.310Z,41.95
2023-02-11T14:50:44.922Z,43.14
2023-02-11T15:04:23.997Z,45.17
2023-02-11T15:06:54.589Z,46.03
2023-02-11T15:09:29.592Z,45.55
2023-02-11T15:11:58.698Z,45.08
2023-02-11T15:14:32.239Z,45.91
2023-02-11T15:17:07.969Z,46.17
2023-02-11T15:19:41.490Z,46.18
2023-02-11T15:22:24.975Z,46.93
2023-02-11T15:25:10.143Z,46.92
2023-02-11T15:27:47.548Z,47.61
2023-02-11T15:30:22.112Z,47.33
2023-02-11T15:32:58.997Z,48.73
2023-02-11T15:35:41.370Z,47.96
2023-02-11T15:38:13.785Z,49.17
2023-02-11T15:40:55.256Z,49.18
2023-02-11T15:43:23.658Z,50.54
2023-02-11T15:45:52.133Z,50.22
2023-02-11T15:48:47.707Z,49.88
2023-02-11T15:51:31.439Z,51.84
2023-02-11T15:54:04.490Z,51.92
2023-02-11T15:56:44.372Z,50.87
2023-02-11T15:59:47.534Z,50.64
2023-02-11T16:02:33.533Z,51.19
2023-02-11T16:05:08.552Z,51.38
2023-02-11T16:07:43.260Z,50.83
2023-02-11T16:10:27.201Z,51.84
2023-02-11T16:13:07.684Z,53.46
2023-02-11T16:15:43.682Z,51.97
2023-02-11T16:18:38.779Z,52.62
2023-02-11T16:21:19.161Z,52.82
2023-02-11T16:23:55.008Z,55.78
2023-02-11T16:26:39.428Z,58.24
2023-02-11T16:29:13.005Z,57.18
2023-02-11T16:31:47.686Z,56.12
2023-02-11T16:34:26.305Z,53.36
2023-02-11T16:36:54.712Z,53.84
2023-02-11T16:39:23.271Z,54.00
2023-02-11T16:41:52.641Z,54.99
2023-02-11T16:44:21.147Z,54.43
2023-02-11T16:46:49.827Z,53.90
2023-02-11T16:49:18.251Z,53.26
2023-02-11T16:51:50.392Z,54.15
2023-02-11T16:54:20.292Z,57.22
2023-02-11T16:56:49.771Z,53.86
2023-02-11T16:59:18.214Z,53.48
2023-02-11T17:01:48.388Z,57.29
2023-02-11T17:04:30.480Z,56.89
2023-02-11T17:06:59.632Z,54.52
2023-02-11T17:09:30.868Z,54.29
2023-02-11T17:12:00.816Z,54.02
2023-02-11T17:14:29.366Z,54.26
2023-02-11T17:16:58.066Z,53.35
2023-02-11T17:19:26.624Z,53.21
2023-02-11T17:21:55.105Z,58.69
2023-02-11T17:24:23.764Z,61.04
2023-02-11T17:26:52.196Z,55.85
2023-02-11T17:29:23.976Z,55.04
2023-02-11T17:31:53.898Z,54.18
2023-02-11T17:34:23.245Z,53.94
2023-02-11T17:36:52.148Z,56.65
2023-02-11T17:39:21.392Z,55.71
2023-02-11T17:41:49.826Z,55.71
2023-02-11T17:44:18.332Z,56.12
2023-02-11T17:46:46.829Z,57.85
2023-02-11T17:49:16.509Z,57.50
2023-02-11T17:51:45.076Z,55.18
2023-02-11T17:54:17.647Z,54.92
2023-02-11T17:56:49.297Z,54.93
2023-02-11T17:59:18.789Z,55.23
2023-02-11T18:01:47.778Z,55.93
2023-02-11T18:04:19.382Z,55.90
2023-02-11T18:06:47.902Z,57.16
2023-02-11T18:09:16.369Z,56.44
2023-02-11T18:11:44.926Z,58.20
2023-02-11T18:14:13.382Z,58.78
2023-02-11T18:16:44.981Z,58.40
2023-02-11T18:19:14.249Z,58.29
2023-02-11T18:21:42.827Z,59.24
2023-02-11T18:24:11.823Z,59.69
2023-02-11T18:26:40.402Z,60.13
2023-02-11T18:40:26.748Z,58.88
2023-02-11T18:42:53.852Z,61.86
2023-02-11T18:45:20.914Z,61.86
2023-02-11T18:47:47.931Z,60.82
2023-02-11T18:50:15.626Z,58.16
2023-02-11T18:52:42.720Z,59.08
2023-02-11T18:55:09.870Z,58.05
2023-02-11T18:57:37.314Z,66.08
2023-02-11T19:00:07.630Z,65.65
2023-02-11T19:02:34.786Z,60.76
2023-02-11T19:05:05.297Z,62.56
2023-02-11T19:07:32.463Z,70.10
2023-02-11T19:09:59.650Z,66.19
2023-02-11T19:12:26.691Z,64.77
2023-02-11T19:14:53.777Z,64.51
2023-02-11T19:17:20.817Z,63.19
2023-02-11T19:19:47.871Z,62.52
2023-02-11T19:22:15.071Z,62.52
2023-02-11T19:24:42.376Z,62.35
2023-02-11T19:27:09.708Z,61.95
2023-02-11T19:29:37.181Z,60.54
2023-02-11T19:32:05.677Z,59.78
2023-02-11T19:34:40.391Z,60.12
2023-02-11T19:37:11.892Z,60.99
2023-02-11T19:39:41.317Z,62.20
2023-02-11T19:42:08.757Z,61.87
2023-02-11T19:44:35.865Z,62.95
2023-02-11T19:47:03.292Z,61.35
2023-02-11T19:49:30.336Z,66.02
2023-02-11T19:51:57.709Z,64.07
2023-02-11T19:54:28.443Z,60.82
2023-02-11T19:56:57.000Z,59.16
2023-02-11T19:59:24.290Z,59.26
2023-02-11T20:01:52.714Z,58.34
2023-02-11T20:04:20.047Z,58.69
2023-02-11T20:06:49.854Z,57.91
2023-02-11T20:09:16.921Z,57.74
2023-02-11T20:11:44.592Z,57.32
2023-02-11T20:14:14.815Z,56.87
2023-02-11T20:16:48.736Z,56.39
2023-02-11T20:19:20.790Z,56.11
2023-02-11T20:21:52.430Z,55.90
2023-02-11T20:24:19.894Z,55.74
2023-02-11T20:26:48.776Z,55.85
2023-02-11T20:29:17.258Z,56.22
2023-02-11T20:31:44.760Z,56.05
2023-02-11T20:34:12.164Z,56.13
2023-02-11T20:36:40.089Z,56.17
2023-02-11T20:39:07.975Z,56.34
2023-02-11T20:41:39.299Z,56.38
2023-02-11T20:44:10.115Z,55.62
2023-02-11T20:46:40.593Z,55.47
2023-02-11T20:49:11.537Z,54.96
2023-02-11T20:51:39.416Z,54.79
2023-02-11T20:54:10.925Z,54.66
2023-02-11T20:56:39.180Z,54.89
2023-02-11T20:59:06.646Z,54.37
2023-02-11T21:01:37.115Z,54.92
2023-02-11T21:04:13.997Z,55.58
2023-02-11T21:06:48.235Z,55.93
2023-02-11T21:09:21.063Z,56.30
2023-02-11T21:11:50.972Z,56.03
2023-02-11T21:14:19.400Z,56.16
2023-02-11T21:16:47.872Z,56.30
2023-02-11T21:19:15.405Z,55.84
2023-02-11T21:21:43.293Z,55.97
2023-02-11T21:24:10.898Z,56.12
2023-02-11T21:26:39.142Z,55.40
2023-02-11T21:29:07.898Z,55.08
2023-02-11T21:31:36.742Z,54.80
2023-02-11T21:34:05.441Z,54.76
2023-02-11T21:36:33.432Z,54.86
2023-02-11T21:39:01.372Z,55.06
2023-02-11T21:41:28.521Z,54.98
2023-02-11T21:43:56.375Z,54.89
2023-02-11T21:46:23.777Z,55.02
2023-02-11T21:48:51.005Z,55.58
2023-02-11T21:51:25.419Z,55.47
2023-02-11T22:03:29.420Z,56.14
2023-02-11T22:05:57.956Z,56.17
2023-02-11T22:08:26.565Z,56.27
2023-02-11T22:11:04.171Z,55.94
2023-02-11T22:13:33.835Z,56.61
2023-02-11T22:16:06.660Z,56.63
2023-02-11T22:18:36.171Z,57.23
2023-02-11T22:21:11.536Z,56.55
2023-02-11T22:23:40.666Z,56.20
2023-02-11T22:26:14.998Z,56.18
2023-02-11T22:28:44.510Z,56.54
2023-02-11T22:31:20.598Z,56.61
2023-02-11T22:33:49.851Z,56.54
2023-02-11T22:36:24.497Z,56.68
2023-02-11T22:38:54.335Z,57.48
2023-02-11T22:41:23.995Z,57.37
2023-02-11T22:43:52.594Z,57.64
2023-02-11T22:46:21.291Z,57.97
2023-02-11T22:48:50.287Z,57.69
2023-02-11T22:51:23.958Z,57.90
2023-02-11T22:53:58.812Z,58.44
2023-02-11T22:56:29.349Z,58.64
2023-02-11T22:59:05.794Z,59.08
2023-02-11T23:01:35.131Z,59.83
2023-02-11T23:04:06.613Z,60.55
2023-02-11T23:06:35.929Z,61.07
2023-02-11T23:09:09.168Z,61.71
2023-02-11T23:11:38.193Z,61.85
2023-02-11T23:14:08.680Z,61.56
2023-02-11T23:16:37.208Z,61.38
2023-02-11T23:19:09.160Z,61.93
2023-02-11T23:21:39.614Z,64.08
2023-02-11T23:24:13.325Z,62.47
2023-02-11T23:26:43.453Z,63.44
2023-02-11T23:29:12.929Z,64.61
2023-02-11T23:31:46.179Z,64.62
2023-02-11T23:34:17.407Z,65.24
2023-02-11T23:36:46.331Z,66.19
2023-02-11T23:39:17.131Z,67.04
2023-02-11T23:41:46.869Z,67.58
2023-02-11T23:44:15.450Z,67.46
2023-02-11T23:46:44.108Z,67.72
2023-02-11T23:49:12.604Z,67.60
2023-02-11T23:51:41.043Z,68.01
2023-02-11T23:54:14.848Z,67.94
2023-02-11T23:56:44.068Z,67.96
2023-02-11T23:59:12.904Z,67.81
